CheckWX is a tool to help pilots better visualize weather data.  It is not intended as a substitute for an official pre-flight weather briefing.

09:53:44 UTC

KIPT METAR
Williamsport Regional Airport
Williamsport, Pennsylvania, USA
Current

60 mins ago

KIPT 070854Z AUTO 28005KT 10SM OVC047 M01/M06 A3027 RMK AO2 SLP254 T10111061 53015
Observed
Dec-7 @ 08:54 UTC
Wind
  • 280° at 5 KTS
Visibility
10 SM
Flight Rules
VFR
Cloud Levels
  • Overcast at 4,700' AGL
Temperature
-1°C / 30°F
Dewpoint
-6°C / 21°F
Humidity
69%
Altimeter
30.27" Hg
Pressure
1025.02 hPa
Previous

2 hours ago

KIPT 070754Z AUTO 31004KT 10SM OVC050 M01/M06 A3025 RMK AO2 SLP248 T10111061
Observed
Dec-7 @ 07:54 UTC
Wind
  • 310° at 4 KTS
Visibility
10 SM
Flight Rules
VFR
Cloud Levels
  • Overcast at 5,000' AGL
Temperature
-1°C / 30°F
Dewpoint
-6°C / 21°F
Humidity
69%
Altimeter
30.25" Hg
Pressure
1024.42 hPa
Previous

3 hours ago

KIPT 070654Z AUTO 27004KT 10SM BKN055 M02/M07 A3024 RMK AO2 SLP244 T10171067
Observed
Dec-7 @ 06:54 UTC
Wind
  • 270° at 4 KTS
Visibility
10 SM
Flight Rules
VFR
Cloud Levels
  • Broken at 5,500' AGL
Temperature
-2°C / 28°F
Dewpoint
-7°C / 19°F
Humidity
69%
Altimeter
30.24" Hg
Pressure
1024.02 hPa